sensor_id;sensor_type;location;lat;lon;timestamp;pressure;altitude;pressure_sealevel;temperature;humidity
38197;BME280;26543;51.976;4.616;2023-03-14T00:01:48;52940.78;;;-140.72;0.00
38197;BME280;26543;51.976;4.616;2023-03-14T00:04:14;52938.75;;;-140.72;0.00
38197;BME280;26543;51.976;4.616;2023-03-14T00:06:39;52942.81;;;-140.72;0.00
38197;BME280;26543;51.976;4.616;2023-03-14T00:09:05;52946.88;;;-140.72;0.00
38197;BME280;26543;51.976;4.616;2023-03-14T00:11:30;52922.53;;;-140.72;0.00
38197;BME280;26543;51.976;4.616;2023-03-14T00:13:56;52955.00;;;-140.72;0.00
38197;BME280;26543;51.976;4.616;2023-03-14T00:16:21;52942.81;;;-140.72;0.00
38197;BME280;26543;51.976;4.616;2023-03-14T00:18:46;52930.66;;;-140.72;0.00
38197;BME280;26543;51.976;4.616;2023-03-14T00:21:12;52940.78;;;-140.72;0.00
38197;BME280;26543;51.976;4.616;2023-03-14T00:23:39;52969.19;;;-140.72;0.00
38197;BME280;26543;51.976;4.616;2023-03-14T00:26:07;52934.69;;;-140.72;0.00
38197;BME280;26543;51.976;4.616;2023-03-14T00:28:33;52983.41;;;-140.72;0.00
38197;BME280;26543;51.976;4.616;2023-03-14T00:30:58;52971.22;;;-140.72;0.00
38197;BME280;26543;51.976;4.616;2023-03-14T00:33:24;53007.75;;;-140.72;0.00
38197;BME280;26543;51.976;4.616;2023-03-14T00:35:53;52967.16;;;-140.72;0.00
38197;BME280;26543;51.976;4.616;2023-03-14T00:38:18;52959.06;;;-140.72;0.00
38197;BME280;26543;51.976;4.616;2023-03-14T00:40:43;52997.63;;;-140.72;0.00
38197;BME280;26543;51.976;4.616;2023-03-14T00:43:09;52987.47;;;-140.72;0.00
38197;BME280;26543;51.976;4.616;2023-03-14T00:45:34;52942.81;;;-140.72;0.00
38197;BME280;26543;51.976;4.616;2023-03-14T00:48:00;52999.66;;;-140.72;0.00
38197;BME280;26543;51.976;4.616;2023-03-14T00:50:25;52999.66;;;-140.72;0.00
38197;BME280;26543;51.976;4.616;2023-03-14T00:52:50;53013.84;;;-140.72;0.00
38197;BME280;26543;51.976;4.616;2023-03-14T00:55:15;52987.47;;;-140.72;0.00
38197;BME280;26543;51.976;4.616;2023-03-14T00:57:40;52991.53;;;-140.72;0.00
38197;BME280;26543;51.976;4.616;2023-03-14T01:00:06;52985.44;;;-140.72;0.00
38197;BME280;26543;51.976;4.616;2023-03-14T01:02:33;52944.84;;;-140.72;0.00
38197;BME280;26543;51.976;4.616;2023-03-14T01:04:58;52999.66;;;-140.72;0.00
38197;BME280;26543;51.976;4.616;2023-03-14T01:07:23;52975.28;;;-140.72;0.00
38197;BME280;26543;51.976;4.616;2023-03-14T01:09:51;52946.88;;;-140.72;0.00
38197;BME280;26543;51.976;4.616;2023-03-14T01:12:16;52985.44;;;-140.72;0.00
38197;BME280;26543;51.976;4.616;2023-03-14T01:14:41;52930.66;;;-140.72;0.00
38197;BME280;26543;51.976;4.616;2023-03-14T01:17:06;52965.16;;;-140.72;0.00
38197;BME280;26543;51.976;4.616;2023-03-14T01:19:31;53001.66;;;-140.72;0.00
38197;BME280;26543;51.976;4.616;2023-03-14T01:21:57;52997.63;;;-140.72;0.00
38197;BME280;26543;51.976;4.616;2023-03-14T01:24:22;52950.94;;;-140.72;0.00
38197;BME280;26543;51.976;4.616;2023-03-14T01:26:47;52944.84;;;-140.72;0.00
38197;BME280;26543;51.976;4.616;2023-03-14T01:29:13;52963.13;;;-140.72;0.00
38197;BME280;26543;51.976;4.616;2023-03-14T01:31:38;52987.47;;;-140.72;0.00
38197;BME280;26543;51.976;4.616;2023-03-14T01:34:03;52959.06;;;-140.72;0.00
38197;BME280;26543;51.976;4.616;2023-03-14T01:36:28;53003.69;;;-140.72;0.00
38197;BME280;26543;51.976;4.616;2023-03-14T01:38:54;53009.78;;;-140.72;0.00
38197;BME280;26543;51.976;4.616;2023-03-14T01:41:22;52952.97;;;-140.72;0.00
38197;BME280;26543;51.976;4.616;2023-03-14T01:43:48;52975.28;;;-140.72;0.00
38197;BME280;26543;51.976;4.616;2023-03-14T01:48:40;52950.94;;;-140.72;0.00
38197;BME280;26543;51.976;4.616;2023-03-14T01:51:08;52959.06;;;-140.72;0.00
38197;BME280;26543;51.976;4.616;2023-03-14T01:53:35;52942.81;;;-140.72;0.00
38197;BME280;26543;51.976;4.616;2023-03-14T01:56:00;53003.69;;;-140.72;0.00
38197;BME280;26543;51.976;4.616;2023-03-14T01:58:26;52995.59;;;-140.72;0.00
38197;BME280;26543;51.976;4.616;2023-03-14T02:00:53;52979.34;;;-140.72;0.00
38197;BME280;26543;51.976;4.616;2023-03-14T02:03:19;52973.25;;;-140.72;0.00
38197;BME280;26543;51.976;4.616;2023-03-14T02:05:46;52979.34;;;-140.72;0.00
38197;BME280;26543;51.976;4.616;2023-03-14T02:08:16;52963.13;;;-140.72;0.00
38197;BME280;26543;51.976;4.616;2023-03-14T02:10:45;52995.59;;;-140.72;0.00
38197;BME280;26543;51.976;4.616;2023-03-14T02:13:11;52985.44;;;-140.72;0.00
38197;BME280;26543;51.976;4.616;2023-03-14T02:15:36;53005.72;;;-140.72;0.00
38197;BME280;26543;51.976;4.616;2023-03-14T02:18:03;53009.78;;;-140.72;0.00
38197;BME280;26543;51.976;4.616;2023-03-14T02:22:54;52965.16;;;-140.72;0.00
38197;BME280;26543;51.976;4.616;2023-03-14T02:25:25;52969.19;;;-140.72;0.00
38197;BME280;26543;51.976;4.616;2023-03-14T02:27:54;52981.38;;;-140.72;0.00
38197;BME280;26543;51.976;4.616;2023-03-14T02:30:22;52991.53;;;-140.72;0.00
38197;BME280;26543;51.976;4.616;2023-03-14T02:32:48;53024.00;;;-140.72;0.00
38197;BME280;26543;51.976;4.616;2023-03-14T02:35:16;52977.31;;;-140.72;0.00
38197;BME280;26543;51.976;4.616;2023-03-14T02:37:52;52967.16;;;-140.72;0.00
38197;BME280;26543;51.976;4.616;2023-03-14T02:40:18;52995.59;;;-140.72;0.00
38197;BME280;26543;51.976;4.616;2023-03-14T02:42:43;53011.81;;;-140.72;0.00
38197;BME280;26543;51.976;4.616;2023-03-14T02:47:34;52963.13;;;-140.72;0.00
38197;BME280;26543;51.976;4.616;2023-03-14T02:50:06;52973.25;;;-140.72;0.00
38197;BME280;26543;51.976;4.616;2023-03-14T02:52:33;52977.31;;;-140.72;0.00
38197;BME280;26543;51.976;4.616;2023-03-14T02:54:58;53013.84;;;-140.72;0.00
38197;BME280;26543;51.976;4.616;2023-03-14T02:57:23;52957.03;;;-140.72;0.00
38197;BME280;26543;51.976;4.616;2023-03-14T02:59:48;52987.47;;;-140.72;0.00
38197;BME280;26543;51.976;4.616;2023-03-14T03:02:14;52991.53;;;-140.72;0.00
38197;BME280;26543;51.976;4.616;2023-03-14T03:04:39;52979.34;;;-140.72;0.00
38197;BME280;26543;51.976;4.616;2023-03-14T03:07:04;53005.72;;;-140.72;0.00
38197;BME280;26543;51.976;4.616;2023-03-14T03:09:29;53003.69;;;-140.72;0.00
38197;BME280;26543;51.976;4.616;2023-03-14T03:11:55;53003.69;;;-140.72;0.00
38197;BME280;26543;51.976;4.616;2023-03-14T03:14:20;53003.69;;;-140.72;0.00
38197;BME280;26543;51.976;4.616;2023-03-14T03:16:45;53005.72;;;-140.72;0.00
38197;BME280;26543;51.976;4.616;2023-03-14T03:19:10;52969.19;;;-140.72;0.00
38197;BME280;26543;51.976;4.616;2023-03-14T03:21:38;52967.16;;;-140.72;0.00
38197;BME280;26543;51.976;4.616;2023-03-14T03:24:03;52991.53;;;-140.72;0.00
38197;BME280;26543;51.976;4.616;2023-03-14T03:26:28;52991.53;;;-140.72;0.00
38197;BME280;26543;51.976;4.616;2023-03-14T03:28:54;52991.53;;;-140.72;0.00
38197;BME280;26543;51.976;4.616;2023-03-14T03:31:19;52979.34;;;-140.72;0.00
38197;BME280;26543;51.976;4.616;2023-03-14T03:33:44;52957.03;;;-140.72;0.00
38197;BME280;26543;51.976;4.616;2023-03-14T03:36:09;52946.88;;;-140.72;0.00
38197;BME280;26543;51.976;4.616;2023-03-14T03:38:35;52979.34;;;-140.72;0.00
38197;BME280;26543;51.976;4.616;2023-03-14T03:41:09;52993.56;;;-140.72;0.00
38197;BME280;26543;51.976;4.616;2023-03-14T03:43:34;52969.19;;;-140.72;0.00
38197;BME280;26543;51.976;4.616;2023-03-14T03:46:03;52987.47;;;-140.72;0.00
38197;BME280;26543;51.976;4.616;2023-03-14T03:48:29;53011.81;;;-140.72;0.00
38197;BME280;26543;51.976;4.616;2023-03-14T03:50:55;52997.63;;;-140.72;0.00
38197;BME280;26543;51.976;4.616;2023-03-14T03:53:20;53005.72;;;-140.72;0.00
38197;BME280;26543;51.976;4.616;2023-03-14T03:55:45;53011.81;;;-140.72;0.00
38197;BME280;26543;51.976;4.616;2023-03-14T03:58:11;52987.47;;;-140.72;0.00
38197;BME280;26543;51.976;4.616;2023-03-14T04:03:28;52963.13;;;-140.72;0.00
38197;BME280;26543;51.976;4.616;2023-03-14T04:08:46;52975.28;;;-140.72;0.00
38197;BME280;26543;51.976;4.616;2023-03-14T04:11:12;52983.41;;;-140.72;0.00
38197;BME280;26543;51.976;4.616;2023-03-14T04:13:37;52967.16;;;-140.72;0.00
38197;BME280;26543;51.976;4.616;2023-03-14T04:16:02;52979.34;;;-140.72;0.00
38197;BME280;26543;51.976;4.616;2023-03-14T04:18:27;53013.84;;;-140.72;0.00
38197;BME280;26543;51.976;4.616;2023-03-14T04:20:55;53003.69;;;-140.72;0.00
38197;BME280;26543;51.976;4.616;2023-03-14T04:23:21;53019.94;;;-140.72;0.00
38197;BME280;26543;51.976;4.616;2023-03-14T04:25:49;52989.50;;;-140.72;0.00
38197;BME280;26543;51.976;4.616;2023-03-14T04:28:14;53011.81;;;-140.72;0.00
38197;BME280;26543;51.976;4.616;2023-03-14T04:30:39;53046.31;;;-140.72;0.00
38197;BME280;26543;51.976;4.616;2023-03-14T04:33:05;53015.88;;;-140.72;5.18
38197;BME280;26543;51.976;4.616;2023-03-14T04:35:30;53007.75;;;-140.72;21.17
38197;BME280;26543;51.976;4.616;2023-03-14T04:37:56;53044.28;;;-140.72;35.07
38197;BME280;26543;51.976;4.616;2023-03-14T04:40:21;52975.28;;;-140.72;19.28
38197;BME280;26543;51.976;4.616;2023-03-14T04:42:46;53011.81;;;-140.72;32.60
38197;BME280;26543;51.976;4.616;2023-03-14T04:45:11;53005.72;;;-140.72;43.03
38197;BME280;26543;51.976;4.616;2023-03-14T04:47:36;53017.91;;;-140.72;55.22
38197;BME280;26543;51.976;4.616;2023-03-14T04:50:02;53028.06;;;-140.72;68.29
38197;BME280;26543;51.976;4.616;2023-03-14T04:52:27;53019.94;;;-140.72;78.92
38197;BME280;26543;51.976;4.616;2023-03-14T04:54:52;53015.88;;;-140.72;93.44
38197;BME280;26543;51.976;4.616;2023-03-14T04:57:17;53040.22;;;-140.72;100.00
38197;BME280;26543;51.976;4.616;2023-03-14T04:59:43;53024.00;;;-140.72;100.00
38197;BME280;26543;51.976;4.616;2023-03-14T05:02:08;52979.34;;;-140.72;100.00
38197;BME280;26543;51.976;4.616;2023-03-14T05:04:33;52987.47;;;-140.72;100.00
38197;BME280;26543;51.976;4.616;2023-03-14T05:06:59;53044.28;;;-140.72;100.00
38197;BME280;26543;51.976;4.616;2023-03-14T05:09:24;53024.00;;;-140.72;100.00
38197;BME280;26543;51.976;4.616;2023-03-14T05:11:49;52987.47;;;-140.72;100.00
38197;BME280;26543;51.976;4.616;2023-03-14T05:14:14;53024.00;;;-140.72;100.00
38197;BME280;26543;51.976;4.616;2023-03-14T05:16:40;53044.28;;;-140.72;100.00
38197;BME280;26543;51.976;4.616;2023-03-14T05:19:05;53011.81;;;-140.72;100.00
38197;BME280;26543;51.976;4.616;2023-03-14T05:21:30;53024.00;;;-140.72;100.00
38197;BME280;26543;51.976;4.616;2023-03-14T05:23:55;53009.78;;;-140.72;100.00
38197;BME280;26543;51.976;4.616;2023-03-14T05:26:20;53028.06;;;-140.72;100.00
38197;BME280;26543;51.976;4.616;2023-03-14T05:28:46;53048.34;;;-140.72;100.00
38197;BME280;26543;51.976;4.616;2023-03-14T05:31:11;53019.94;;;-140.72;100.00
38197;BME280;26543;51.976;4.616;2023-03-14T05:33:36;53013.84;;;-140.72;100.00
38197;BME280;26543;51.976;4.616;2023-03-14T05:36:01;53052.41;;;-140.72;100.00
38197;BME280;26543;51.976;4.616;2023-03-14T05:38:27;53052.41;;;-140.72;100.00
38197;BME280;26543;51.976;4.616;2023-03-14T05:40:52;52981.38;;;-140.72;100.00
38197;BME280;26543;51.976;4.616;2023-03-14T05:43:17;53028.06;;;-140.72;100.00
38197;BME280;26543;51.976;4.616;2023-03-14T05:45:43;53021.97;;;-140.72;100.00
38197;BME280;26543;51.976;4.616;2023-03-14T05:48:08;53050.38;;;-140.72;100.00
38197;BME280;26543;51.976;4.616;2023-03-14T05:50:33;53040.22;;;-140.72;100.00
38197;BME280;26543;51.976;4.616;2023-03-14T05:52:59;53072.69;;;-140.72;100.00
38197;BME280;26543;51.976;4.616;2023-03-14T05:55:24;53046.31;;;-140.72;100.00
38197;BME280;26543;51.976;4.616;2023-03-14T05:57:49;53026.03;;;-140.72;100.00
38197;BME280;26543;51.976;4.616;2023-03-14T06:00:15;53015.88;;;-140.72;100.00
38197;BME280;26543;51.976;4.616;2023-03-14T06:02:40;53019.94;;;-140.72;100.00
38197;BME280;26543;51.976;4.616;2023-03-14T06:05:05;53044.28;;;-140.72;100.00
38197;BME280;26543;51.976;4.616;2023-03-14T06:07:31;53034.16;;;-140.72;100.00
38197;BME280;26543;51.976;4.616;2023-03-14T06:09:56;53001.66;;;-140.72;100.00
38197;BME280;26543;51.976;4.616;2023-03-14T06:12:21;53060.53;;;-140.72;100.00
38197;BME280;26543;51.976;4.616;2023-03-14T06:14:47;53064.59;;;-140.72;100.00
38197;BME280;26543;51.976;4.616;2023-03-14T06:17:12;53074.72;;;-140.72;100.00
38197;BME280;26543;51.976;4.616;2023-03-14T06:19:37;53040.22;;;-140.72;100.00
38197;BME280;26543;51.976;4.616;2023-03-14T06:22:02;53034.16;;;-140.72;100.00
38197;BME280;26543;51.976;4.616;2023-03-14T06:24:27;53038.19;;;-140.72;100.00
38197;BME280;26543;51.976;4.616;2023-03-14T06:26:53;53064.59;;;-140.72;100.00
38197;BME280;26543;51.976;4.616;2023-03-14T06:29:18;53060.53;;;-140.72;100.00
38197;BME280;26543;51.976;4.616;2023-03-14T06:31:43;53040.22;;;-140.72;100.00
38197;BME280;26543;51.976;4.616;2023-03-14T06:34:08;53058.50;;;-140.72;100.00
38197;BME280;26543;51.976;4.616;2023-03-14T06:36:34;53084.88;;;-140.72;100.00
38197;BME280;26543;51.976;4.616;2023-03-14T06:38:59;53056.47;;;-140.72;100.00
38197;BME280;26543;51.976;4.616;2023-03-14T06:41:24;53050.38;;;-140.72;100.00
38197;BME280;26543;51.976;4.616;2023-03-14T06:43:51;53082.84;;;-140.72;100.00
38197;BME280;26543;51.976;4.616;2023-03-14T06:46:17;53066.63;;;-140.72;100.00
38197;BME280;26543;51.976;4.616;2023-03-14T06:48:42;53090.97;;;-140.72;100.00
38197;BME280;26543;51.976;4.616;2023-03-14T06:51:07;53052.41;;;-140.72;100.00
38197;BME280;26543;51.976;4.616;2023-03-14T06:53:33;53082.84;;;-140.72;100.00
38197;BME280;26543;51.976;4.616;2023-03-14T06:55:58;53058.50;;;-140.72;100.00
38197;BME280;26543;51.976;4.616;2023-03-14T06:58:23;53028.06;;;-140.72;100.00
38197;BME280;26543;51.976;4.616;2023-03-14T07:00:49;53056.47;;;-140.72;100.00
38197;BME280;26543;51.976;4.616;2023-03-14T07:03:14;53056.47;;;-140.72;100.00
38197;BME280;26543;51.976;4.616;2023-03-14T07:05:39;53026.03;;;-140.72;100.00
38197;BME280;26543;51.976;4.616;2023-03-14T07:08:05;53032.13;;;-140.72;100.00
38197;BME280;26543;51.976;4.616;2023-03-14T07:10:31;53072.69;;;-140.72;100.00
38197;BME280;26543;51.976;4.616;2023-03-14T07:12:56;53044.28;;;-140.72;100.00
38197;BME280;26543;51.976;4.616;2023-03-14T07:15:21;53060.53;;;-140.72;100.00
38197;BME280;26543;51.976;4.616;2023-03-14T07:17:46;53040.22;;;-140.72;100.00
38197;BME280;26543;51.976;4.616;2023-03-14T07:20:13;53066.63;;;-140.72;100.00
38197;BME280;26543;51.976;4.616;2023-03-14T07:22:38;53044.28;;;-140.72;100.00
38197;BME280;26543;51.976;4.616;2023-03-14T07:25:03;53064.59;;;-140.72;100.00
38197;BME280;26543;51.976;4.616;2023-03-14T07:27:29;53013.84;;;-140.72;100.00
38197;BME280;26543;51.976;4.616;2023-03-14T07:29:54;53054.44;;;-140.72;100.00
38197;BME280;26543;51.976;4.616;2023-03-14T07:32:19;53032.13;;;-140.72;100.00
38197;BME280;26543;51.976;4.616;2023-03-14T07:34:44;53109.22;;;-140.72;100.00
38197;BME280;26543;51.976;4.616;2023-03-14T07:37:09;53060.53;;;-140.72;100.00
38197;BME280;26543;51.976;4.616;2023-03-14T07:39:35;53034.16;;;-140.72;100.00
38197;BME280;26543;51.976;4.616;2023-03-14T07:42:00;53068.66;;;-140.72;100.00
38197;BME280;26543;51.976;4.616;2023-03-14T07:44:26;53070.69;;;-140.72;100.00
38197;BME280;26543;51.976;4.616;2023-03-14T07:46:51;53028.06;;;-140.72;100.00
38197;BME280;26543;51.976;4.616;2023-03-14T07:49:16;53054.44;;;-140.72;100.00
38197;BME280;26543;51.976;4.616;2023-03-14T07:51:42;53034.16;;;-140.72;100.00
38197;BME280;26543;51.976;4.616;2023-03-14T07:54:08;53052.41;;;-140.72;100.00
38197;BME280;26543;51.976;4.616;2023-03-14T07:56:34;53028.06;;;-140.72;100.00
38197;BME280;26543;51.976;4.616;2023-03-14T07:58:59;53062.56;;;-140.72;100.00
38197;BME280;26543;51.976;4.616;2023-03-14T08:01:24;53074.72;;;-140.72;100.00
38197;BME280;26543;51.976;4.616;2023-03-14T08:03:49;53052.41;;;-140.72;100.00
38197;BME280;26543;51.976;4.616;2023-03-14T08:06:15;53068.66;;;-140.72;100.00
38197;BME280;26543;51.976;4.616;2023-03-14T08:08:40;53080.81;;;-140.72;100.00
38197;BME280;26543;51.976;4.616;2023-03-14T08:11:06;53084.88;;;-140.72;100.00
38197;BME280;26543;51.976;4.616;2023-03-14T08:13:33;53095.03;;;-140.72;100.00
38197;BME280;26543;51.976;4.616;2023-03-14T08:15:59;53054.44;;;-140.72;100.00
38197;BME280;26543;51.976;4.616;2023-03-14T08:18:24;53066.63;;;-140.72;100.00
38197;BME280;26543;51.976;4.616;2023-03-14T08:20:49;53088.94;;;-140.72;100.00
38197;BME280;26543;51.976;4.616;2023-03-14T08:23:14;53074.72;;;-140.72;100.00
38197;BME280;26543;51.976;4.616;2023-03-14T08:25:40;53064.59;;;-140.72;100.00
38197;BME280;26543;51.976;4.616;2023-03-14T08:28:05;53060.53;;;-140.72;100.00
38197;BME280;26543;51.976;4.616;2023-03-14T08:30:30;53084.88;;;-140.72;100.00
38197;BME280;26543;51.976;4.616;2023-03-14T08:32:56;53060.53;;;-140.72;100.00
38197;BME280;26543;51.976;4.616;2023-03-14T08:35:22;53080.81;;;-140.72;100.00
38197;BME280;26543;51.976;4.616;2023-03-14T08:37:47;53072.69;;;-140.72;100.00
38197;BME280;26543;51.976;4.616;2023-03-14T08:40:12;53064.59;;;-140.72;100.00
38197;BME280;26543;51.976;4.616;2023-03-14T08:42:38;53078.78;;;-140.72;100.00
38197;BME280;26543;51.976;4.616;2023-03-14T08:45:04;53076.75;;;-140.72;100.00
38197;BME280;26543;51.976;4.616;2023-03-14T08:47:30;53054.44;;;-140.72;100.00
38197;BME280;26543;51.976;4.616;2023-03-14T08:49:55;53058.50;;;-140.72;100.00
38197;BME280;26543;51.976;4.616;2023-03-14T08:52:20;53062.56;;;-140.72;100.00
38197;BME280;26543;51.976;4.616;2023-03-14T08:54:46;53070.69;;;-140.72;100.00
38197;BME280;26543;51.976;4.616;2023-03-14T08:57:11;53072.69;;;-140.72;100.00
38197;BME280;26543;51.976;4.616;2023-03-14T08:59:36;53052.41;;;-140.72;100.00
38197;BME280;26543;51.976;4.616;2023-03-14T09:02:02;53009.78;;;-140.72;100.00
38197;BME280;26543;51.976;4.616;2023-03-14T09:04:30;52995.59;;;-140.72;100.00
38197;BME280;26543;51.976;4.616;2023-03-14T09:06:56;53036.16;;;-140.72;100.00
38197;BME280;26543;51.976;4.616;2023-03-14T09:09:23;53015.88;;;-140.72;100.00
38197;BME280;26543;51.976;4.616;2023-03-14T09:11:48;52977.31;;;-140.72;100.00
38197;BME280;26543;51.976;4.616;2023-03-14T09:14:13;53038.19;;;-140.72;100.00
38197;BME280;26543;51.976;4.616;2023-03-14T09:16:39;52959.06;;;-140.72;100.00
38197;BME280;26543;51.976;4.616;2023-03-14T09:19:04;53011.81;;;-140.72;100.00
38197;BME280;26543;51.976;4.616;2023-03-14T09:21:30;53026.03;;;-140.72;100.00
38197;BME280;26543;51.976;4.616;2023-03-14T09:23:55;53032.13;;;-140.72;100.00
38197;BME280;26543;51.976;4.616;2023-03-14T09:26:21;53044.28;;;-140.72;100.00
38197;BME280;26543;51.976;4.616;2023-03-14T09:28:46;53009.78;;;-140.72;100.00
38197;BME280;26543;51.976;4.616;2023-03-14T09:31:11;52999.66;;;-140.72;100.00
38197;BME280;26543;51.976;4.616;2023-03-14T09:33:37;53032.13;;;-140.72;100.00
38197;BME280;26543;51.976;4.616;2023-03-14T09:36:03;53007.75;;;-140.72;100.00
38197;BME280;26543;51.976;4.616;2023-03-14T09:38:29;53042.25;;;-140.72;100.00
38197;BME280;26543;51.976;4.616;2023-03-14T09:40:54;53060.53;;;-140.72;100.00
38197;BME280;26543;51.976;4.616;2023-03-14T09:43:20;53052.41;;;-140.72;100.00
38197;BME280;26543;51.976;4.616;2023-03-14T09:45:48;53105.19;;;-140.72;100.00
38197;BME280;26543;51.976;4.616;2023-03-14T09:48:19;53076.75;;;-140.72;100.00
38197;BME280;26543;51.976;4.616;2023-03-14T09:50:46;53048.34;;;-140.72;100.00
38197;BME280;26543;51.976;4.616;2023-03-14T09:53:14;53009.78;;;-140.72;100.00
38197;BME280;26543;51.976;4.616;2023-03-14T09:55:41;53040.22;;;-140.72;100.00
38197;BME280;26543;51.976;4.616;2023-03-14T09:58:10;53009.78;;;-140.72;100.00
38197;BME280;26543;51.976;4.616;2023-03-14T10:00:36;52995.59;;;-140.72;100.00
38197;BME280;26543;51.976;4.616;2023-03-14T10:05:41;53015.88;;;-140.72;100.00
38197;BME280;26543;51.976;4.616;2023-03-14T10:08:10;53007.75;;;-140.72;100.00
38197;BME280;26543;51.976;4.616;2023-03-14T10:10:36;53017.91;;;-140.72;100.00
38197;BME280;26543;51.976;4.616;2023-03-14T10:13:10;52991.53;;;-140.72;100.00
38197;BME280;26543;51.976;4.616;2023-03-14T10:15:37;52987.47;;;-140.72;100.00
38197;BME280;26543;51.976;4.616;2023-03-14T10:18:03;53011.81;;;-140.72;100.00
38197;BME280;26543;51.976;4.616;2023-03-14T10:22:58;52987.47;;;-140.72;100.00
38197;BME280;26543;51.976;4.616;2023-03-14T10:25:25;52971.22;;;-140.72;100.00
38197;BME280;26543;51.976;4.616;2023-03-14T10:27:51;52967.16;;;-140.72;100.00
38197;BME280;26543;51.976;4.616;2023-03-14T10:32:53;52987.47;;;-140.72;85.22
38197;BME280;26543;51.976;4.616;2023-03-14T10:35:20;52971.22;;;-140.72;56.82
38197;BME280;26543;51.976;4.616;2023-03-14T10:40:14;52991.53;;;-140.72;48.70
38197;BME280;26543;51.976;4.616;2023-03-14T10:42:40;53007.75;;;-140.72;26.59
38197;BME280;26543;51.976;4.616;2023-03-14T10:45:22;53028.06;;;-140.72;24.33
38197;BME280;26543;51.976;4.616;2023-03-14T10:47:51;52999.66;;;-140.72;23.45
38197;BME280;26543;51.976;4.616;2023-03-14T10:50:24;53011.81;;;-140.72;15.54
38197;BME280;26543;51.976;4.616;2023-03-14T10:52:51;53046.31;;;-140.72;0.00
38197;BME280;26543;51.976;4.616;2023-03-14T10:55:17;52967.16;;;-140.72;0.00
38197;BME280;26543;51.976;4.616;2023-03-14T10:57:42;52977.31;;;-140.72;0.00
38197;BME280;26543;51.976;4.616;2023-03-14T11:00:16;52979.34;;;-140.72;0.00
38197;BME280;26543;51.976;4.616;2023-03-14T11:05:53;52959.06;;;-140.72;0.00
38197;BME280;26543;51.976;4.616;2023-03-14T11:08:07;52912.38;;;-140.72;0.00
38197;BME280;26543;51.976;4.616;2023-03-14T11:10:35;52833.22;;;-140.72;0.00
38197;BME280;26543;51.976;4.616;2023-03-14T11:18:19;52859.63;;;-140.72;0.00
38197;BME280;26543;51.976;4.616;2023-03-14T11:21:08;52910.34;;;-140.72;0.00
38197;BME280;26543;51.976;4.616;2023-03-14T11:23:49;52774.38;;;-140.72;0.00
38197;BME280;26543;51.976;4.616;2023-03-14T11:26:28;52768.28;;;-140.72;0.00
38197;BME280;26543;51.976;4.616;2023-03-14T11:28:58;52733.78;;;-140.72;0.00
38197;BME280;26543;51.976;4.616;2023-03-14T11:31:28;52683.06;;;-140.72;0.00
38197;BME280;26543;51.976;4.616;2023-03-14T11:34:15;52683.06;;;-140.72;0.00
38197;BME280;26543;51.976;4.616;2023-03-14T11:36:46;52666.84;;;-140.72;0.00
38197;BME280;26543;51.976;4.616;2023-03-14T11:39:17;52630.31;;;-140.72;0.00
38197;BME280;26543;51.976;4.616;2023-03-14T11:41:46;52735.81;;;-140.72;0.00
38197;BME280;26543;51.976;4.616;2023-03-14T11:44:25;52640.44;;;-140.72;0.00
38197;BME280;26543;51.976;4.616;2023-03-14T11:47:02;52642.47;;;-140.72;0.00
38197;BME280;26543;51.976;4.616;2023-03-14T11:49:33;52634.38;;;-140.72;0.00
38197;BME280;26543;51.976;4.616;2023-03-14T11:52:05;52587.69;;;-140.72;0.00
38197;BME280;26543;51.976;4.616;2023-03-14T11:57:05;52589.72;;;-140.72;0.00
38197;BME280;26543;51.976;4.616;2023-03-14T12:02:13;52557.25;;;-140.72;0.00
38197;BME280;26543;51.976;4.616;2023-03-14T12:07:17;52581.59;;;-140.72;0.00
38197;BME280;26543;51.976;4.616;2023-03-14T12:09:44;52648.56;;;-140.72;0.00
38197;BME280;26543;51.976;4.616;2023-03-14T12:12:12;52634.38;;;-140.72;0.00
38197;BME280;26543;51.976;4.616;2023-03-14T12:14:38;52628.28;;;-140.72;0.00
38197;BME280;26543;51.976;4.616;2023-03-14T12:19:38;52652.63;;;-140.72;0.00
38197;BME280;26543;51.976;4.616;2023-03-14T12:24:34;52664.81;;;-140.72;0.00
38197;BME280;26543;51.976;4.616;2023-03-14T12:27:01;52689.16;;;-140.72;0.00
38197;BME280;26543;51.976;4.616;2023-03-14T12:29:27;52727.72;;;-140.72;0.00
38197;BME280;26543;51.976;4.616;2023-03-14T12:34:40;52634.38;;;-140.72;0.00
38197;BME280;26543;51.976;4.616;2023-03-14T12:37:17;52589.72;;;-140.72;0.00
38197;BME280;26543;51.976;4.616;2023-03-14T12:40:01;52549.13;;;-140.72;0.00
38197;BME280;26543;51.976;4.616;2023-03-14T12:47:41;52605.94;;;-140.72;0.00
38197;BME280;26543;51.976;4.616;2023-03-14T12:50:13;52557.25;;;-140.72;0.00
38197;BME280;26543;51.976;4.616;2023-03-14T12:55:32;52597.84;;;-140.72;0.00
38197;BME280;26543;51.976;4.616;2023-03-14T12:58:12;52502.47;;;-140.72;0.00
38197;BME280;26543;51.976;4.616;2023-03-14T13:00:42;52461.88;;;-140.72;0.00
38197;BME280;26543;51.976;4.616;2023-03-14T13:03:20;52447.69;;;-140.72;0.00
38197;BME280;26543;51.976;4.616;2023-03-14T13:05:54;52425.34;;;-140.72;0.00
38197;BME280;26543;51.976;4.616;2023-03-14T13:08:32;52423.31;;;-140.72;0.00
38197;BME280;26543;51.976;4.616;2023-03-14T13:10:57;52374.63;;;-140.72;0.00
38197;BME280;26543;51.976;4.616;2023-03-14T13:13:24;52427.38;;;-140.72;0.00
38197;BME280;26543;51.976;4.616;2023-03-14T13:15:56;52447.69;;;-140.72;0.00
38197;BME280;26543;51.976;4.616;2023-03-14T13:18:30;52429.41;;;-140.72;0.00
38197;BME280;26543;51.976;4.616;2023-03-14T13:20:59;52423.31;;;-140.72;0.00
38197;BME280;26543;51.976;4.616;2023-03-14T13:23:31;52561.31;;;-140.72;0.00
38197;BME280;26543;51.976;4.616;2023-03-14T13:25:56;52514.63;;;-140.72;0.00
38197;BME280;26543;51.976;4.616;2023-03-14T13:28:22;52559.28;;;-140.72;0.00
38197;BME280;26543;51.976;4.616;2023-03-14T13:30:49;52676.97;;;-140.72;0.00
38197;BME280;26543;51.976;4.616;2023-03-14T13:33:16;52780.47;;;-140.72;0.00